createdAt,value
2018-07-26T00:01:32.099Z,24.60
2018-07-26T00:04:02.447Z,24.60
2018-07-26T00:06:34.890Z,24.60
2018-07-26T00:09:05.331Z,24.60
2018-07-26T00:11:35.742Z,24.40
2018-07-26T00:14:06.122Z,24.50
2018-07-26T00:16:36.446Z,24.50
2018-07-26T00:19:06.862Z,24.50
2018-07-26T00:21:44.628Z,24.40
2018-07-26T00:24:14.970Z,24.40
2018-07-26T00:26:47.411Z,24.40
2018-07-26T00:29:17.793Z,24.30
2018-07-26T00:31:48.140Z,24.20
2018-07-26T00:34:18.473Z,24.30
2018-07-26T00:36:51.563Z,24.30
2018-07-26T00:39:21.980Z,24.30
2018-07-26T00:41:52.317Z,24.30
2018-07-26T00:44:22.696Z,24.20
2018-07-26T00:46:53.116Z,24.20
2018-07-26T00:49:23.520Z,24.30
2018-07-26T00:51:53.909Z,24.20
2018-07-26T00:54:24.984Z,24.30
2018-07-26T00:56:56.136Z,24.20
2018-07-26T00:59:26.531Z,24.20
2018-07-26T01:01:56.948Z,24.30
2018-07-26T01:04:27.332Z,24.20
2018-07-26T01:06:57.714Z,24.20
2018-07-26T01:09:28.116Z,24.10
2018-07-26T01:12:00.544Z,24.20
2018-07-26T01:14:30.946Z,24.10
2018-07-26T01:17:01.368Z,24.20
2018-07-26T01:19:32.777Z,24.20
2018-07-26T01:22:07.286Z,24.20
2018-07-26T01:24:39.109Z,24.30
2018-07-26T01:27:07.993Z,24.20
2018-07-26T01:29:38.410Z,24.10
2018-07-26T01:32:08.800Z,24.10
2018-07-26T01:34:41.666Z,24.00
2018-07-26T01:37:12.094Z,24.00
2018-07-26T01:39:42.422Z,24.00
2018-07-26T01:42:13.581Z,24.00
2018-07-26T01:44:47.063Z,24.00
2018-07-26T01:47:17.392Z,24.00
2018-07-26T01:49:47.719Z,24.00
2018-07-26T01:52:18.128Z,24.00
2018-07-26T01:54:48.514Z,23.90
2018-07-26T01:57:18.899Z,23.90
2018-07-26T01:59:49.332Z,23.80
2018-07-26T02:02:19.721Z,23.80
2018-07-26T02:04:50.881Z,23.70
2018-07-26T02:07:21.294Z,23.80
2018-07-26T02:09:51.687Z,23.60
2018-07-26T02:12:23.102Z,23.70
2018-07-26T02:14:53.700Z,23.60
2018-07-26T02:17:24.785Z,23.60
2018-07-26T02:19:55.167Z,23.60
2018-07-26T02:22:25.592Z,23.50
2018-07-26T02:24:55.988Z,23.40
2018-07-26T02:27:26.367Z,23.30
2018-07-26T02:29:57.688Z,23.40
2018-07-26T02:32:28.247Z,23.50
2018-07-26T02:34:59.387Z,23.50
2018-07-26T02:37:29.817Z,23.40
2018-07-26T02:40:00.188Z,23.40
2018-07-26T02:42:49.912Z,23.40
2018-07-26T02:45:21.078Z,23.30
2018-07-26T02:47:51.460Z,23.40
2018-07-26T02:50:21.815Z,23.40
2018-07-26T02:52:52.238Z,23.20
2018-07-26T02:55:23.380Z,23.20
2018-07-26T02:57:54.565Z,23.20
2018-07-26T03:00:24.878Z,23.30
2018-07-26T03:02:56.294Z,23.20
2018-07-26T03:05:26.721Z,23.10
2018-07-26T03:07:57.130Z,23.10
2018-07-26T03:10:27.515Z,23.30
2018-07-26T03:12:58.957Z,23.30
2018-07-26T03:15:30.350Z,23.30
2018-07-26T03:18:00.752Z,23.30
2018-07-26T03:20:31.165Z,23.40
2018-07-26T03:23:01.564Z,23.40
2018-07-26T03:25:32.727Z,23.10
2018-07-26T03:28:03.132Z,23.10
2018-07-26T03:30:34.290Z,23.10
2018-07-26T03:33:04.689Z,23.10
2018-07-26T03:35:35.110Z,23.10
2018-07-26T03:40:54.068Z,22.70
2018-07-26T03:43:24.450Z,22.60
2018-07-26T03:45:55.596Z,22.80
2018-07-26T03:48:26.023Z,22.90
2018-07-26T03:50:56.403Z,22.80
2018-07-26T03:53:26.778Z,22.80
2018-07-26T03:55:57.187Z,22.80
2018-07-26T03:58:28.329Z,22.80
2018-07-26T04:00:59.479Z,22.80
2018-07-26T04:03:30.652Z,22.70
2018-07-26T04:06:00.972Z,22.70
2018-07-26T04:08:31.360Z,22.70
2018-07-26T04:11:02.802Z,22.80
2018-07-26T04:13:33.203Z,22.90
2018-07-26T04:16:23.003Z,22.80
2018-07-26T04:18:53.399Z,22.70
2018-07-26T04:21:24.818Z,22.70
2018-07-26T04:23:56.005Z,22.70
2018-07-26T04:26:28.432Z,22.70
2018-07-26T04:28:58.836Z,22.80
2018-07-26T04:31:29.304Z,22.70
2018-07-26T04:33:59.633Z,22.70
2018-07-26T04:36:30.015Z,22.90
2018-07-26T04:39:00.462Z,22.80
2018-07-26T04:41:30.846Z,22.80
2018-07-26T04:44:01.240Z,22.70
2018-07-26T04:46:31.660Z,22.70
2018-07-26T04:49:02.046Z,22.50
2018-07-26T04:51:32.424Z,22.80
2018-07-26T04:54:02.839Z,22.80
2018-07-26T04:56:33.165Z,22.70
2018-07-26T04:59:03.489Z,22.60
2018-07-26T05:01:33.896Z,22.70
2018-07-26T05:04:05.040Z,22.50
2018-07-26T05:06:35.439Z,22.50
2018-07-26T05:09:06.037Z,22.60
2018-07-26T05:11:36.421Z,22.70
2018-07-26T05:14:06.797Z,22.80
2018-07-26T05:16:38.246Z,22.50
2018-07-26T05:19:08.913Z,22.60
2018-07-26T05:21:39.242Z,22.40
2018-07-26T05:24:09.600Z,22.80
2018-07-26T05:26:39.989Z,22.60
2018-07-26T05:29:10.556Z,22.60
2018-07-26T05:31:41.741Z,22.80
2018-07-26T05:34:15.214Z,22.80
2018-07-26T05:36:45.602Z,22.70
2018-07-26T05:39:16.007Z,22.70
2018-07-26T05:41:46.383Z,22.70
2018-07-26T05:44:17.531Z,22.80
2018-07-26T05:46:47.875Z,22.90
2018-07-26T05:49:18.259Z,22.80
2018-07-26T05:51:48.648Z,22.70
2018-07-26T05:54:20.027Z,22.80
2018-07-26T05:56:50.424Z,22.80
2018-07-26T05:59:21.017Z,22.90
2018-07-26T06:01:51.419Z,22.90
2018-07-26T06:04:21.821Z,23.20
2018-07-26T06:06:53.216Z,23.20
2018-07-26T06:09:23.633Z,23.10
2018-07-26T06:11:54.779Z,23.30
2018-07-26T06:14:25.945Z,23.40
2018-07-26T06:16:56.378Z,23.40
2018-07-26T06:19:26.770Z,23.60
2018-07-26T06:21:57.948Z,23.80
2018-07-26T06:24:28.333Z,23.80
2018-07-26T06:26:58.737Z,23.80
2018-07-26T06:29:29.137Z,23.80
2018-07-26T06:32:02.609Z,23.80
2018-07-26T06:34:33.002Z,23.90
2018-07-26T06:37:03.385Z,24.10
2018-07-26T06:39:33.796Z,24.20
2018-07-26T06:42:04.139Z,24.30
2018-07-26T06:44:34.541Z,24.50
2018-07-26T06:47:05.799Z,24.60
2018-07-26T06:49:43.419Z,24.60
2018-07-26T06:52:13.832Z,25.00
2018-07-26T06:54:44.235Z,25.00
2018-07-26T06:57:15.392Z,25.20
2018-07-26T06:59:45.797Z,25.20
2018-07-26T07:02:16.190Z,25.40
2018-07-26T07:04:46.576Z,25.60
2018-07-26T07:07:17.002Z,25.60
2018-07-26T07:09:47.389Z,25.60
2018-07-26T07:12:17.758Z,25.70
2018-07-26T07:14:48.185Z,25.90
2018-07-26T07:17:18.565Z,26.00
2018-07-26T07:19:48.963Z,25.90
2018-07-26T07:22:21.419Z,26.10
2018-07-26T07:24:51.810Z,26.10
2018-07-26T07:27:22.828Z,26.20
2018-07-26T07:29:53.221Z,26.20
2018-07-26T07:32:31.763Z,26.30
2018-07-26T07:35:02.193Z,26.20
2018-07-26T07:37:32.527Z,26.30
2018-07-26T07:42:51.411Z,26.40
2018-07-26T07:45:21.793Z,26.40
2018-07-26T07:47:52.187Z,26.40
2018-07-26T07:50:22.668Z,26.60
2018-07-26T07:52:53.048Z,26.70
2018-07-26T07:55:23.398Z,26.90
2018-07-26T07:57:55.853Z,27.20
2018-07-26T08:00:26.240Z,27.30
2018-07-26T08:02:56.623Z,27.40
2018-07-26T08:05:26.972Z,27.60
2018-07-26T08:08:01.461Z,27.30
2018-07-26T08:10:31.847Z,27.20
2018-07-26T08:13:02.269Z,27.10
2018-07-26T08:15:32.665Z,27.20
2018-07-26T08:18:21.432Z,27.30
2018-07-26T08:20:54.908Z,27.80
2018-07-26T08:23:29.410Z,27.80
2018-07-26T08:26:01.597Z,27.90
2018-07-26T08:28:31.998Z,27.90
2018-07-26T08:31:02.348Z,27.90
2018-07-26T08:33:32.730Z,27.80
2018-07-26T08:36:03.118Z,28.00
2018-07-26T08:38:37.638Z,28.20
2018-07-26T08:41:14.184Z,28.20
2018-07-26T08:43:44.897Z,28.30
2018-07-26T08:46:15.207Z,28.40
2018-07-26T08:48:45.579Z,28.50
2018-07-26T08:51:15.988Z,28.60
2018-07-26T08:53:48.154Z,28.90
2018-07-26T08:56:18.672Z,28.90
2018-07-26T08:58:49.068Z,28.90
2018-07-26T09:01:19.459Z,29.00
2018-07-26T09:03:52.903Z,29.20
2018-07-26T09:06:23.949Z,29.30
2018-07-26T09:08:54.351Z,29.40
2018-07-26T09:11:26.813Z,29.50
2018-07-26T09:13:57.205Z,29.40
2018-07-26T09:16:27.578Z,29.50
2018-07-26T09:19:03.126Z,29.50
2018-07-26T09:21:35.555Z,29.80
2018-07-26T09:24:06.131Z,29.80
2018-07-26T09:26:55.900Z,29.80
2018-07-26T09:29:30.371Z,29.80
2018-07-26T09:32:01.550Z,30.00
2018-07-26T09:34:31.947Z,30.10
2018-07-26T09:37:02.346Z,30.20
2018-07-26T09:39:32.764Z,30.30
2018-07-26T09:42:04.162Z,30.20
2018-07-26T09:44:35.307Z,30.30
2018-07-26T09:47:06.482Z,30.30
2018-07-26T09:49:38.858Z,30.20
2018-07-26T09:52:09.239Z,30.50
2018-07-26T09:54:40.437Z,30.40
2018-07-26T09:57:11.011Z,30.40
2018-07-26T09:59:42.183Z,30.70
2018-07-26T10:02:12.603Z,30.60
2018-07-26T10:04:42.997Z,30.70
2018-07-26T10:07:13.394Z,30.80
2018-07-26T10:09:51.317Z,30.90
2018-07-26T10:12:21.722Z,30.80
2018-07-26T10:14:52.101Z,30.80
2018-07-26T10:17:23.297Z,31.00
2018-07-26T10:19:53.690Z,31.00
2018-07-26T10:22:24.072Z,31.10
2018-07-26T10:24:54.490Z,31.00
2018-07-26T10:27:24.813Z,31.00
2018-07-26T10:29:55.212Z,31.00
2018-07-26T10:32:26.666Z,31.10
2018-07-26T10:34:59.155Z,31.10
2018-07-26T10:37:29.490Z,31.10
2018-07-26T10:40:00.929Z,31.10
2018-07-26T10:42:37.461Z,31.00
2018-07-26T10:45:08.650Z,31.20
2018-07-26T10:47:46.195Z,31.20
2018-07-26T10:50:16.804Z,31.20
2018-07-26T10:52:47.182Z,31.00
2018-07-26T10:55:17.563Z,31.30
2018-07-26T10:57:47.981Z,31.50
2018-07-26T11:00:20.461Z,31.30
2018-07-26T11:02:50.793Z,31.10
2018-07-26T11:05:21.209Z,31.20
2018-07-26T11:07:52.548Z,31.40
2018-07-26T11:10:22.927Z,31.40
2018-07-26T11:12:53.331Z,31.50
2018-07-26T11:15:23.720Z,31.50
2018-07-26T11:18:13.500Z,31.50
2018-07-26T11:20:43.824Z,31.20
2018-07-26T11:23:14.239Z,31.10
2018-07-26T11:25:51.546Z,31.40
2018-07-26T11:28:21.948Z,31.40
2018-07-26T11:30:58.502Z,31.40
2018-07-26T11:33:28.825Z,31.70
2018-07-26T11:35:59.423Z,31.40
2018-07-26T11:38:34.923Z,31.30
2018-07-26T11:41:11.455Z,31.70
2018-07-26T11:43:41.951Z,31.70
2018-07-26T11:46:12.287Z,31.70
2018-07-26T11:48:42.673Z,31.80
2018-07-26T11:54:02.109Z,32.00
2018-07-26T11:56:32.524Z,32.00
2018-07-26T11:59:02.908Z,32.00
2018-07-26T12:01:33.327Z,31.90
2018-07-26T12:04:04.495Z,31.50
2018-07-26T12:06:36.922Z,31.50
2018-07-26T12:09:08.070Z,32.20
2018-07-26T12:11:39.239Z,32.40
2018-07-26T12:14:09.630Z,32.40
2018-07-26T12:16:40.008Z,32.30
2018-07-26T12:19:15.550Z,32.00
2018-07-26T12:21:45.924Z,32.10
2018-07-26T12:24:16.306Z,31.80
2018-07-26T12:26:48.787Z,32.00
2018-07-26T12:29:19.147Z,32.40
2018-07-26T12:31:49.547Z,32.60
2018-07-26T12:34:19.958Z,32.50
2018-07-26T12:36:53.421Z,32.30
2018-07-26T12:39:23.809Z,32.20
2018-07-26T12:41:54.229Z,32.30
2018-07-26T12:44:26.661Z,32.40
2018-07-26T12:46:57.807Z,32.40
2018-07-26T12:49:30.290Z,32.40
2018-07-26T12:52:00.686Z,32.60
2018-07-26T12:54:31.843Z,32.70
2018-07-26T12:57:03.032Z,32.80
2018-07-26T12:59:33.354Z,32.80
2018-07-26T13:02:03.742Z,32.80
2018-07-26T13:04:34.918Z,32.90
2018-07-26T13:07:06.054Z,32.90
2018-07-26T13:09:36.330Z,33.10
2018-07-26T13:12:06.688Z,33.10
2018-07-26T13:14:37.158Z,33.40
2018-07-26T13:17:07.460Z,33.40
2018-07-26T13:19:37.884Z,33.50
2018-07-26T13:22:08.292Z,33.40
2018-07-26T13:24:40.816Z,33.50
2018-07-26T13:27:11.267Z,33.40
2018-07-26T13:29:48.789Z,33.20
2018-07-26T13:32:19.195Z,33.10
2018-07-26T13:34:49.505Z,33.10
2018-07-26T13:37:19.827Z,33.30
2018-07-26T13:39:50.248Z,33.20
2018-07-26T13:42:42.030Z,33.20
2018-07-26T13:45:14.517Z,33.00
2018-07-26T13:47:44.920Z,32.80
2018-07-26T13:50:16.327Z,32.90
2018-07-26T13:52:46.750Z,32.70
2018-07-26T13:55:24.449Z,32.50
2018-07-26T13:58:14.223Z,32.50
2018-07-26T14:00:47.685Z,32.40
2018-07-26T14:03:18.081Z,32.60
2018-07-26T14:05:49.221Z,32.90
2018-07-26T14:08:19.620Z,32.50
2018-07-26T14:10:50.023Z,32.30
2018-07-26T14:13:20.451Z,32.20
2018-07-26T14:15:50.947Z,32.10
2018-07-26T14:18:21.419Z,32.00
2018-07-26T14:20:51.903Z,31.80
2018-07-26T14:23:26.341Z,31.90
2018-07-26T14:25:56.724Z,32.10
2018-07-26T14:28:27.150Z,32.20
2018-07-26T14:30:57.547Z,32.30
2018-07-26T14:33:30.997Z,32.20
2018-07-26T14:36:01.419Z,32.30
2018-07-26T14:38:31.739Z,32.10
2018-07-26T14:41:02.132Z,32.20
2018-07-26T14:43:37.665Z,32.40
2018-07-26T14:46:08.042Z,32.60
2018-07-26T14:48:38.430Z,32.60
2018-07-26T14:51:14.967Z,32.50
2018-07-26T14:53:45.307Z,32.70
2018-07-26T14:56:15.626Z,32.60
2018-07-26T14:58:46.078Z,32.30
2018-07-26T15:01:16.445Z,32.20
2018-07-26T15:03:46.836Z,32.20
2018-07-26T15:06:17.332Z,32.30
2018-07-26T15:08:47.647Z,32.40
2018-07-26T15:11:18.038Z,32.50
2018-07-26T15:13:48.446Z,32.50
2018-07-26T15:16:18.833Z,32.50
2018-07-26T15:18:50.251Z,32.80
2018-07-26T15:21:20.673Z,32.90
2018-07-26T15:23:51.056Z,32.70
2018-07-26T15:26:23.429Z,32.70
2018-07-26T15:28:53.845Z,32.60
2018-07-26T15:31:24.224Z,32.40
2018-07-26T15:33:54.606Z,32.50
2018-07-26T15:36:25.013Z,32.60
2018-07-26T15:38:56.180Z,32.80
2018-07-26T15:41:26.571Z,32.80
2018-07-26T15:43:56.979Z,32.90
2018-07-26T15:46:27.358Z,32.90
2018-07-26T15:48:57.777Z,32.80
2018-07-26T15:51:29.026Z,32.80
2018-07-26T15:54:06.518Z,32.80
2018-07-26T15:56:36.940Z,32.90
2018-07-26T15:59:07.323Z,32.90
2018-07-26T16:01:37.720Z,33.00
2018-07-26T16:04:27.237Z,33.00
2018-07-26T16:06:57.624Z,33.00
2018-07-26T16:12:16.258Z,32.90
2018-07-26T16:14:47.336Z,33.00
2018-07-26T16:17:37.226Z,33.00
2018-07-26T16:20:10.592Z,33.10
2018-07-26T16:22:40.979Z,33.00
2018-07-26T16:25:11.441Z,33.00
2018-07-26T16:27:41.763Z,32.90
2018-07-26T16:30:12.146Z,32.70
2018-07-26T16:32:42.545Z,32.60
2018-07-26T16:35:12.928Z,32.50
2018-07-26T16:37:44.089Z,32.30
2018-07-26T16:40:14.523Z,32.30
2018-07-26T16:42:44.883Z,32.30
2018-07-26T16:45:15.284Z,32.20
2018-07-26T16:47:45.706Z,32.10
2018-07-26T16:50:16.814Z,32.00
2018-07-26T16:52:47.212Z,31.90
2018-07-26T16:55:17.631Z,31.90
2018-07-26T16:58:08.407Z,31.90
2018-07-26T17:00:38.824Z,32.10
2018-07-26T17:03:09.144Z,31.90
2018-07-26T17:05:42.257Z,31.80
2018-07-26T17:08:12.682Z,31.90
2018-07-26T17:10:43.132Z,31.80
2018-07-26T17:13:13.465Z,31.90
2018-07-26T17:15:43.826Z,32.10
2018-07-26T17:18:14.974Z,32.00
2018-07-26T17:20:45.354Z,32.00
2018-07-26T17:23:15.953Z,31.80
2018-07-26T17:25:48.385Z,31.60
2018-07-26T17:28:18.772Z,31.60
2018-07-26T17:30:51.229Z,31.60
2018-07-26T17:33:21.686Z,31.40
2018-07-26T17:35:52.006Z,31.30
2018-07-26T17:38:28.565Z,31.30
2018-07-26T17:40:58.943Z,31.10
2018-07-26T17:43:29.340Z,31.10
2018-07-26T17:45:59.747Z,31.00
2018-07-26T17:48:30.145Z,31.00
2018-07-26T17:51:01.347Z,30.90
2018-07-26T17:53:31.716Z,30.90
2018-07-26T17:56:02.119Z,31.00
2018-07-26T17:58:32.517Z,30.90
2018-07-26T18:01:02.929Z,30.90
2018-07-26T18:03:38.425Z,30.80
2018-07-26T18:06:08.834Z,30.90
2018-07-26T18:08:39.296Z,30.70
2018-07-26T18:11:12.677Z,30.80
2018-07-26T18:13:43.088Z,30.70
2018-07-26T18:16:13.466Z,30.60
2018-07-26T18:18:43.821Z,30.50
2018-07-26T18:21:14.256Z,30.40
2018-07-26T18:23:44.651Z,30.30
2018-07-26T18:26:15.133Z,30.20
2018-07-26T18:28:46.225Z,30.20
2018-07-26T18:31:16.677Z,30.10
2018-07-26T18:33:46.950Z,30.10
2018-07-26T18:36:18.066Z,30.10
2018-07-26T18:38:48.462Z,30.00
2018-07-26T18:41:38.020Z,30.00
2018-07-26T18:44:08.532Z,30.00
2018-07-26T18:46:38.824Z,30.00
2018-07-26T18:49:09.297Z,29.90
2018-07-26T18:51:39.661Z,29.80
2018-07-26T18:54:10.059Z,29.70
2018-07-26T18:56:40.479Z,29.70
2018-07-26T18:59:13.563Z,29.60
2018-07-26T19:01:46.637Z,29.60
2018-07-26T19:04:17.835Z,29.60
2018-07-26T19:06:48.220Z,29.60
2018-07-26T19:09:18.541Z,29.50
2018-07-26T19:11:51.842Z,29.40
2018-07-26T19:14:22.238Z,29.30
2018-07-26T19:16:52.631Z,29.30
2018-07-26T19:19:23.025Z,29.30
2018-07-26T19:21:53.418Z,29.40
2018-07-26T19:24:23.816Z,29.30
2018-07-26T19:26:57.314Z,29.30
2018-07-26T19:32:20.460Z,29.20
2018-07-26T19:34:50.856Z,29.10
2018-07-26T19:37:22.019Z,28.80
2018-07-26T19:39:53.210Z,28.70
2018-07-26T19:42:24.248Z,28.70
2018-07-26T19:44:55.653Z,28.70
2018-07-26T19:47:26.830Z,28.70
2018-07-26T19:49:57.211Z,28.70
2018-07-26T19:52:31.160Z,28.60
2018-07-26T19:55:01.734Z,28.50
2018-07-26T19:57:32.140Z,28.50
2018-07-26T20:00:02.562Z,28.50
2018-07-26T20:02:35.001Z,28.50
2018-07-26T20:05:05.394Z,28.50
2018-07-26T20:07:35.760Z,28.50
2018-07-26T20:10:06.209Z,28.30
2018-07-26T20:12:36.547Z,28.20
2018-07-26T20:15:12.072Z,28.10
2018-07-26T20:17:42.453Z,28.10
2018-07-26T20:20:13.030Z,28.20
2018-07-26T20:22:44.464Z,28.20
2018-07-26T20:25:15.044Z,28.20
2018-07-26T20:27:45.437Z,28.10
2018-07-26T20:30:15.869Z,28.20
2018-07-26T20:32:46.261Z,28.20
2018-07-26T20:35:16.663Z,28.00
2018-07-26T20:37:47.072Z,28.10
2018-07-26T20:40:17.457Z,28.10
2018-07-26T20:42:47.840Z,28.10
2018-07-26T20:45:18.250Z,28.00
2018-07-26T20:47:48.653Z,27.80
2018-07-26T20:50:19.053Z,27.70
2018-07-26T20:52:50.235Z,27.70
2018-07-26T20:55:24.698Z,27.80
2018-07-26T20:57:55.061Z,27.80
2018-07-26T21:00:25.460Z,27.70
2018-07-26T21:02:55.854Z,27.70
2018-07-26T21:05:26.528Z,27.70
2018-07-26T21:07:56.910Z,27.60
2018-07-26T21:10:27.239Z,27.70
2018-07-26T21:12:57.650Z,27.70
2018-07-26T21:15:32.122Z,27.70
2018-07-26T21:18:03.308Z,27.50
2018-07-26T21:20:33.694Z,27.40
2018-07-26T21:23:04.025Z,27.40
2018-07-26T21:25:35.219Z,27.50
2018-07-26T21:28:05.605Z,27.40
2018-07-26T21:30:35.986Z,27.30
2018-07-26T21:33:06.420Z,27.30
2018-07-26T21:35:36.813Z,27.20
2018-07-26T21:38:07.195Z,27.30
2018-07-26T21:40:37.561Z,27.30
2018-07-26T21:43:07.952Z,27.30
2018-07-26T21:45:39.105Z,27.40
2018-07-26T21:48:10.304Z,27.40
2018-07-26T21:50:40.882Z,27.40
2018-07-26T21:53:11.271Z,27.30
2018-07-26T21:55:41.686Z,27.20
2018-07-26T21:58:13.107Z,27.30
2018-07-26T22:00:43.507Z,27.40
2018-07-26T22:03:14.666Z,27.40
2018-07-26T22:05:45.061Z,27.40
2018-07-26T22:08:15.462Z,27.40
2018-07-26T22:10:45.808Z,27.40
2018-07-26T22:13:16.212Z,27.50
2018-07-26T22:15:46.603Z,27.40
2018-07-26T22:18:17.205Z,27.40
2018-07-26T22:20:47.616Z,27.30
2018-07-26T22:23:18.980Z,27.30
2018-07-26T22:25:49.366Z,27.30
2018-07-26T22:28:19.754Z,27.30
2018-07-26T22:30:50.931Z,27.10
2018-07-26T22:33:27.484Z,27.10
2018-07-26T22:35:57.874Z,27.10
2018-07-26T22:38:28.280Z,27.10
2018-07-26T22:40:58.691Z,27.00
2018-07-26T22:43:32.139Z,27.00
2018-07-26T22:46:03.308Z,27.00
2018-07-26T22:48:33.658Z,27.00
2018-07-26T22:51:04.041Z,27.00
2018-07-26T22:53:34.438Z,26.90
2018-07-26T22:56:04.863Z,26.90
2018-07-26T22:58:35.267Z,26.90
2018-07-26T23:01:07.768Z,26.90
2018-07-26T23:03:38.114Z,26.90
2018-07-26T23:06:09.339Z,26.80
2018-07-26T23:08:39.659Z,26.80
2018-07-26T23:11:10.076Z,26.80
2018-07-26T23:13:40.469Z,26.70
2018-07-26T23:16:10.792Z,26.70
2018-07-26T23:18:41.214Z,26.70
2018-07-26T23:21:11.592Z,26.70
2018-07-26T23:23:41.991Z,26.80
2018-07-26T23:26:12.411Z,26.70
2018-07-26T23:28:46.909Z,26.60
2018-07-26T23:31:17.495Z,26.50
2018-07-26T23:36:36.408Z,26.50
2018-07-26T23:39:08.551Z,26.50
2018-07-26T23:41:38.930Z,26.40
2018-07-26T23:44:09.333Z,26.30
2018-07-26T23:46:39.753Z,26.10
2018-07-26T23:49:10.140Z,26.00
2018-07-26T23:51:40.530Z,26.20
2018-07-26T23:54:11.007Z,26.00
2018-07-26T23:56:41.332Z,25.90
2018-07-26T23:59:11.717Z,26.00
